sensor_id;sensor_type;location;lat;lon;timestamp;temperature;humidity
1391;DHT22;690;51.454;7.194;2023-09-18T00:00:30;18.70;99.90
1391;DHT22;690;51.454;7.194;2023-09-18T00:02:58;18.70;62.20
1391;DHT22;690;51.454;7.194;2023-09-18T00:05:28;18.70;1.00
1391;DHT22;690;51.454;7.194;2023-09-18T00:07:55;18.70;1.00
1391;DHT22;690;51.454;7.194;2023-09-18T00:10:22;18.70;1.00
1391;DHT22;690;51.454;7.194;2023-09-18T00:12:50;18.70;1.00
1391;DHT22;690;51.454;7.194;2023-09-18T00:15:18;18.80;1.00
1391;DHT22;690;51.454;7.194;2023-09-18T00:17:45;18.80;1.00
1391;DHT22;690;51.454;7.194;2023-09-18T00:20:12;18.80;1.00
1391;DHT22;690;51.454;7.194;2023-09-18T00:22:39;18.80;1.00
1391;DHT22;690;51.454;7.194;2023-09-18T00:25:06;18.90;1.00
1391;DHT22;690;51.454;7.194;2023-09-18T00:27:33;18.90;1.00
1391;DHT22;690;51.454;7.194;2023-09-18T00:30:01;18.90;1.00
1391;DHT22;690;51.454;7.194;2023-09-18T00:32:30;18.90;1.00
1391;DHT22;690;51.454;7.194;2023-09-18T00:34:57;18.90;1.00
1391;DHT22;690;51.454;7.194;2023-09-18T00:37:24;18.90;1.00
1391;DHT22;690;51.454;7.194;2023-09-18T00:39:50;18.80;1.00
1391;DHT22;690;51.454;7.194;2023-09-18T00:42:17;18.90;1.00
1391;DHT22;690;51.454;7.194;2023-09-18T00:44:45;18.90;99.90
1391;DHT22;690;51.454;7.194;2023-09-18T00:47:13;18.90;99.90
1391;DHT22;690;51.454;7.194;2023-09-18T00:49:45;18.90;99.90
1391;DHT22;690;51.454;7.194;2023-09-18T00:52:13;18.80;99.90
1391;DHT22;690;51.454;7.194;2023-09-18T00:54:41;18.80;99.90
1391;DHT22;690;51.454;7.194;2023-09-18T00:57:09;18.80;99.90
1391;DHT22;690;51.454;7.194;2023-09-18T00:59:36;18.80;99.90
1391;DHT22;690;51.454;7.194;2023-09-18T01:02:03;18.70;99.90
1391;DHT22;690;51.454;7.194;2023-09-18T01:04:31;18.70;99.90
1391;DHT22;690;51.454;7.194;2023-09-18T01:07:01;18.70;99.90
1391;DHT22;690;51.454;7.194;2023-09-18T01:09:29;18.70;99.90
1391;DHT22;690;51.454;7.194;2023-09-18T01:12:03;18.70;99.90
1391;DHT22;690;51.454;7.194;2023-09-18T01:14:37;18.70;99.90
1391;DHT22;690;51.454;7.194;2023-09-18T01:17:04;18.70;99.90
1391;DHT22;690;51.454;7.194;2023-09-18T01:19:40;18.60;99.90
1391;DHT22;690;51.454;7.194;2023-09-18T01:22:10;18.60;1.00
1391;DHT22;690;51.454;7.194;2023-09-18T01:24:39;18.60;1.00
1391;DHT22;690;51.454;7.194;2023-09-18T01:27:09;18.60;99.90
1391;DHT22;690;51.454;7.194;2023-09-18T01:29:36;18.60;1.00
1391;DHT22;690;51.454;7.194;2023-09-18T01:32:04;18.50;1.00
1391;DHT22;690;51.454;7.194;2023-09-18T01:34:33;18.50;1.00
1391;DHT22;690;51.454;7.194;2023-09-18T01:37:02;18.50;1.00
1391;DHT22;690;51.454;7.194;2023-09-18T01:39:31;18.50;1.00
1391;DHT22;690;51.454;7.194;2023-09-18T01:42:01;18.60;1.00
1391;DHT22;690;51.454;7.194;2023-09-18T01:44:29;18.50;1.00
1391;DHT22;690;51.454;7.194;2023-09-18T01:46:58;18.50;1.00
1391;DHT22;690;51.454;7.194;2023-09-18T01:49:29;18.50;1.00
1391;DHT22;690;51.454;7.194;2023-09-18T01:51:56;18.50;1.00
1391;DHT22;690;51.454;7.194;2023-09-18T01:54:24;18.60;1.00
1391;DHT22;690;51.454;7.194;2023-09-18T01:56:51;18.50;99.90
1391;DHT22;690;51.454;7.194;2023-09-18T01:59:21;18.50;99.90
1391;DHT22;690;51.454;7.194;2023-09-18T02:01:48;18.50;99.90
1391;DHT22;690;51.454;7.194;2023-09-18T02:04:15;18.50;99.90
1391;DHT22;690;51.454;7.194;2023-09-18T02:06:42;18.50;99.90
1391;DHT22;690;51.454;7.194;2023-09-18T02:09:09;18.50;99.90
1391;DHT22;690;51.454;7.194;2023-09-18T02:11:41;18.40;1.00
1391;DHT22;690;51.454;7.194;2023-09-18T02:14:08;18.40;1.00
1391;DHT22;690;51.454;7.194;2023-09-18T02:16:39;18.40;99.90
1391;DHT22;690;51.454;7.194;2023-09-18T02:19:07;18.40;99.90
1391;DHT22;690;51.454;7.194;2023-09-18T02:21:34;18.40;99.90
1391;DHT22;690;51.454;7.194;2023-09-18T02:24:02;18.40;99.90
1391;DHT22;690;51.454;7.194;2023-09-18T02:26:29;18.40;99.90
1391;DHT22;690;51.454;7.194;2023-09-18T02:28:59;18.50;99.90
1391;DHT22;690;51.454;7.194;2023-09-18T02:31:26;18.50;99.90
1391;DHT22;690;51.454;7.194;2023-09-18T02:33:56;18.50;99.90
1391;DHT22;690;51.454;7.194;2023-09-18T02:36:23;18.60;99.90
1391;DHT22;690;51.454;7.194;2023-09-18T02:38:50;18.60;99.90
1391;DHT22;690;51.454;7.194;2023-09-18T02:41:17;18.60;99.90
1391;DHT22;690;51.454;7.194;2023-09-18T02:43:44;18.60;99.90
1391;DHT22;690;51.454;7.194;2023-09-18T02:46:11;18.60;99.90
1391;DHT22;690;51.454;7.194;2023-09-18T02:48:38;18.60;99.90
1391;DHT22;690;51.454;7.194;2023-09-18T02:51:06;18.60;99.90
1391;DHT22;690;51.454;7.194;2023-09-18T02:53:33;18.60;99.90
1391;DHT22;690;51.454;7.194;2023-09-18T02:56:00;18.60;99.90
1391;DHT22;690;51.454;7.194;2023-09-18T02:58:27;18.50;99.90
1391;DHT22;690;51.454;7.194;2023-09-18T03:00:57;18.60;99.90
1391;DHT22;690;51.454;7.194;2023-09-18T03:03:24;18.60;99.90
1391;DHT22;690;51.454;7.194;2023-09-18T03:05:51;18.60;99.90
1391;DHT22;690;51.454;7.194;2023-09-18T03:08:19;18.50;99.90
1391;DHT22;690;51.454;7.194;2023-09-18T03:10:46;18.50;99.90
1391;DHT22;690;51.454;7.194;2023-09-18T03:13:14;18.50;99.90
1391;DHT22;690;51.454;7.194;2023-09-18T03:15:44;18.60;99.90
1391;DHT22;690;51.454;7.194;2023-09-18T03:18:13;18.60;99.90
1391;DHT22;690;51.454;7.194;2023-09-18T03:20:40;18.60;99.90
1391;DHT22;690;51.454;7.194;2023-09-18T03:23:06;18.60;99.90
1391;DHT22;690;51.454;7.194;2023-09-18T03:25:35;18.60;99.90
1391;DHT22;690;51.454;7.194;2023-09-18T03:28:03;18.60;99.90
1391;DHT22;690;51.454;7.194;2023-09-18T03:30:30;18.60;99.90
1391;DHT22;690;51.454;7.194;2023-09-18T03:32:57;18.70;99.90
1391;DHT22;690;51.454;7.194;2023-09-18T03:35:24;18.70;99.90
1391;DHT22;690;51.454;7.194;2023-09-18T03:37:52;18.70;99.90
1391;DHT22;690;51.454;7.194;2023-09-18T03:40:20;18.80;99.90
1391;DHT22;690;51.454;7.194;2023-09-18T03:42:49;18.80;99.90
1391;DHT22;690;51.454;7.194;2023-09-18T03:45:15;18.90;95.70
1391;DHT22;690;51.454;7.194;2023-09-18T03:47:44;19.00;67.50
1391;DHT22;690;51.454;7.194;2023-09-18T03:50:12;19.00;43.50
1391;DHT22;690;51.454;7.194;2023-09-18T03:52:39;19.10;24.40
1391;DHT22;690;51.454;7.194;2023-09-18T03:55:07;19.10;9.70
1391;DHT22;690;51.454;7.194;2023-09-18T03:57:34;19.10;1.00
1391;DHT22;690;51.454;7.194;2023-09-18T04:00:04;19.10;1.00
1391;DHT22;690;51.454;7.194;2023-09-18T04:02:33;19.20;1.00
1391;DHT22;690;51.454;7.194;2023-09-18T04:05:01;19.20;1.00
1391;DHT22;690;51.454;7.194;2023-09-18T04:07:29;19.20;1.00
1391;DHT22;690;51.454;7.194;2023-09-18T04:09:56;19.30;1.00
1391;DHT22;690;51.454;7.194;2023-09-18T04:12:27;19.30;1.00
1391;DHT22;690;51.454;7.194;2023-09-18T04:14:53;19.40;1.00
1391;DHT22;690;51.454;7.194;2023-09-18T04:17:22;19.40;1.00
1391;DHT22;690;51.454;7.194;2023-09-18T04:19:49;19.40;1.00
1391;DHT22;690;51.454;7.194;2023-09-18T04:22:15;19.40;1.00
1391;DHT22;690;51.454;7.194;2023-09-18T04:24:42;19.40;1.00
1391;DHT22;690;51.454;7.194;2023-09-18T04:27:09;19.40;1.00
1391;DHT22;690;51.454;7.194;2023-09-18T04:29:36;19.40;1.00
1391;DHT22;690;51.454;7.194;2023-09-18T04:32:04;19.40;1.00
1391;DHT22;690;51.454;7.194;2023-09-18T04:34:32;19.40;1.00
1391;DHT22;690;51.454;7.194;2023-09-18T04:37:00;19.40;1.00
1391;DHT22;690;51.454;7.194;2023-09-18T04:39:29;19.40;1.00
1391;DHT22;690;51.454;7.194;2023-09-18T04:42:00;19.40;1.00
1391;DHT22;690;51.454;7.194;2023-09-18T04:44:29;19.40;1.00
1391;DHT22;690;51.454;7.194;2023-09-18T04:46:56;19.40;1.00
1391;DHT22;690;51.454;7.194;2023-09-18T04:49:24;19.40;1.00
1391;DHT22;690;51.454;7.194;2023-09-18T04:51:54;19.40;1.00
1391;DHT22;690;51.454;7.194;2023-09-18T04:54:21;19.40;1.00
1391;DHT22;690;51.454;7.194;2023-09-18T04:56:47;19.40;1.00
1391;DHT22;690;51.454;7.194;2023-09-18T04:59:14;19.50;1.00
1391;DHT22;690;51.454;7.194;2023-09-18T05:01:41;19.40;1.00
1391;DHT22;690;51.454;7.194;2023-09-18T05:04:09;19.40;1.00
1391;DHT22;690;51.454;7.194;2023-09-18T05:06:36;19.40;1.00
1391;DHT22;690;51.454;7.194;2023-09-18T05:09:05;19.40;1.00
1391;DHT22;690;51.454;7.194;2023-09-18T05:11:32;19.30;1.00
1391;DHT22;690;51.454;7.194;2023-09-18T05:13:59;19.40;1.00
1391;DHT22;690;51.454;7.194;2023-09-18T05:16:26;19.30;1.00
1391;DHT22;690;51.454;7.194;2023-09-18T05:18:54;19.30;1.00
1391;DHT22;690;51.454;7.194;2023-09-18T05:21:21;19.20;1.00
1391;DHT22;690;51.454;7.194;2023-09-18T05:23:50;19.20;1.00
1391;DHT22;690;51.454;7.194;2023-09-18T05:26:20;19.20;1.00
1391;DHT22;690;51.454;7.194;2023-09-18T05:28:49;19.10;1.00
1391;DHT22;690;51.454;7.194;2023-09-18T05:31:16;19.10;1.00
1391;DHT22;690;51.454;7.194;2023-09-18T05:33:43;19.10;1.00
1391;DHT22;690;51.454;7.194;2023-09-18T05:36:10;19.10;1.00
1391;DHT22;690;51.454;7.194;2023-09-18T05:38:39;19.10;1.00
1391;DHT22;690;51.454;7.194;2023-09-18T05:41:05;19.10;1.00
1391;DHT22;690;51.454;7.194;2023-09-18T05:43:34;19.10;1.00
1391;DHT22;690;51.454;7.194;2023-09-18T05:46:01;19.10;1.00
1391;DHT22;690;51.454;7.194;2023-09-18T05:48:28;19.10;1.00
1391;DHT22;690;51.454;7.194;2023-09-18T05:50:55;19.00;1.00
1391;DHT22;690;51.454;7.194;2023-09-18T05:53:22;19.10;1.00
1391;DHT22;690;51.454;7.194;2023-09-18T05:55:49;19.10;1.00
1391;DHT22;690;51.454;7.194;2023-09-18T05:58:17;19.10;1.00
1391;DHT22;690;51.454;7.194;2023-09-18T06:00:49;19.10;1.00
1391;DHT22;690;51.454;7.194;2023-09-18T06:03:16;19.10;1.00
1391;DHT22;690;51.454;7.194;2023-09-18T06:05:45;19.10;3.60
1391;DHT22;690;51.454;7.194;2023-09-18T06:08:12;19.10;12.90
1391;DHT22;690;51.454;7.194;2023-09-18T06:10:39;19.10;16.60
1391;DHT22;690;51.454;7.194;2023-09-18T06:13:06;19.10;21.60
1391;DHT22;690;51.454;7.194;2023-09-18T06:15:32;19.10;22.30
1391;DHT22;690;51.454;7.194;2023-09-18T06:18:01;19.10;24.30
1391;DHT22;690;51.454;7.194;2023-09-18T06:20:28;19.10;25.40
1391;DHT22;690;51.454;7.194;2023-09-18T06:22:55;19.10;19.20
1391;DHT22;690;51.454;7.194;2023-09-18T06:25:22;19.20;14.20
1391;DHT22;690;51.454;7.194;2023-09-18T06:27:50;19.20;10.50
1391;DHT22;690;51.454;7.194;2023-09-18T06:30:17;19.30;3.90
1391;DHT22;690;51.454;7.194;2023-09-18T06:32:43;19.30;1.00
1391;DHT22;690;51.454;7.194;2023-09-18T06:35:12;19.20;1.00
1391;DHT22;690;51.454;7.194;2023-09-18T06:37:38;19.30;1.00
1391;DHT22;690;51.454;7.194;2023-09-18T06:40:07;19.20;1.00
1391;DHT22;690;51.454;7.194;2023-09-18T06:42:34;19.20;1.00
1391;DHT22;690;51.454;7.194;2023-09-18T06:45:01;19.30;1.00
1391;DHT22;690;51.454;7.194;2023-09-18T06:47:28;19.30;1.00
1391;DHT22;690;51.454;7.194;2023-09-18T06:49:55;19.40;1.00
1391;DHT22;690;51.454;7.194;2023-09-18T06:52:23;19.40;1.00
1391;DHT22;690;51.454;7.194;2023-09-18T06:54:50;19.40;1.00
1391;DHT22;690;51.454;7.194;2023-09-18T06:57:17;19.50;1.00
1391;DHT22;690;51.454;7.194;2023-09-18T06:59:46;19.50;1.00
1391;DHT22;690;51.454;7.194;2023-09-18T07:02:13;19.60;1.00
1391;DHT22;690;51.454;7.194;2023-09-18T07:04:41;19.60;1.00
1391;DHT22;690;51.454;7.194;2023-09-18T07:07:11;19.60;1.00
1391;DHT22;690;51.454;7.194;2023-09-18T07:09:40;19.60;1.00
1391;DHT22;690;51.454;7.194;2023-09-18T07:12:08;19.60;1.00
1391;DHT22;690;51.454;7.194;2023-09-18T07:14:35;19.70;1.00
1391;DHT22;690;51.454;7.194;2023-09-18T07:17:04;19.70;1.00
1391;DHT22;690;51.454;7.194;2023-09-18T07:19:31;19.70;1.00
1391;DHT22;690;51.454;7.194;2023-09-18T07:21:59;19.70;1.00
1391;DHT22;690;51.454;7.194;2023-09-18T07:24:25;19.80;1.00
1391;DHT22;690;51.454;7.194;2023-09-18T07:26:54;19.80;1.00
1391;DHT22;690;51.454;7.194;2023-09-18T07:29:22;19.80;1.00
1391;DHT22;690;51.454;7.194;2023-09-18T07:31:51;19.90;1.00
1391;DHT22;690;51.454;7.194;2023-09-18T07:34:18;20.00;1.00
1391;DHT22;690;51.454;7.194;2023-09-18T07:36:44;20.20;1.00
1391;DHT22;690;51.454;7.194;2023-09-18T07:39:11;20.30;1.00
1391;DHT22;690;51.454;7.194;2023-09-18T07:41:38;20.40;1.00
1391;DHT22;690;51.454;7.194;2023-09-18T07:44:07;20.60;1.00
1391;DHT22;690;51.454;7.194;2023-09-18T07:46:34;20.70;1.00
1391;DHT22;690;51.454;7.194;2023-09-18T07:49:01;20.80;1.00
1391;DHT22;690;51.454;7.194;2023-09-18T07:51:28;21.00;1.00
1391;DHT22;690;51.454;7.194;2023-09-18T07:53:55;21.10;1.00
1391;DHT22;690;51.454;7.194;2023-09-18T07:56:22;21.20;1.00
1391;DHT22;690;51.454;7.194;2023-09-18T07:58:49;21.20;1.00
1391;DHT22;690;51.454;7.194;2023-09-18T08:01:17;21.20;1.00
1391;DHT22;690;51.454;7.194;2023-09-18T08:03:48;21.20;1.00
1391;DHT22;690;51.454;7.194;2023-09-18T08:06:14;21.20;1.00
1391;DHT22;690;51.454;7.194;2023-09-18T08:08:44;21.10;1.00
1391;DHT22;690;51.454;7.194;2023-09-18T08:11:12;21.00;1.00
1391;DHT22;690;51.454;7.194;2023-09-18T08:13:39;21.00;1.00
1391;DHT22;690;51.454;7.194;2023-09-18T08:16:07;21.00;1.00
1391;DHT22;690;51.454;7.194;2023-09-18T08:18:35;21.00;1.00
1391;DHT22;690;51.454;7.194;2023-09-18T08:21:06;21.00;1.00
1391;DHT22;690;51.454;7.194;2023-09-18T08:23:34;20.90;1.00
1391;DHT22;690;51.454;7.194;2023-09-18T08:26:01;20.90;1.00
1391;DHT22;690;51.454;7.194;2023-09-18T08:28:29;20.90;1.00
1391;DHT22;690;51.454;7.194;2023-09-18T08:30:56;20.80;1.00
1391;DHT22;690;51.454;7.194;2023-09-18T08:33:25;20.70;1.00
1391;DHT22;690;51.454;7.194;2023-09-18T08:35:53;20.60;1.00
1391;DHT22;690;51.454;7.194;2023-09-18T08:38:20;20.50;1.00
1391;DHT22;690;51.454;7.194;2023-09-18T08:40:47;20.50;1.00
1391;DHT22;690;51.454;7.194;2023-09-18T08:43:15;20.50;1.00
1391;DHT22;690;51.454;7.194;2023-09-18T08:45:46;20.50;1.00
1391;DHT22;690;51.454;7.194;2023-09-18T08:48:13;20.60;1.00
1391;DHT22;690;51.454;7.194;2023-09-18T08:50:42;20.60;1.00
1391;DHT22;690;51.454;7.194;2023-09-18T08:53:11;20.60;1.00
1391;DHT22;690;51.454;7.194;2023-09-18T08:55:38;20.60;1.00
1391;DHT22;690;51.454;7.194;2023-09-18T08:58:06;20.70;1.00
1391;DHT22;690;51.454;7.194;2023-09-18T09:00:33;20.90;1.00
1391;DHT22;690;51.454;7.194;2023-09-18T09:03:02;21.00;1.00
1391;DHT22;690;51.454;7.194;2023-09-18T09:05:30;21.10;1.00
1391;DHT22;690;51.454;7.194;2023-09-18T09:07:57;21.10;1.00
1391;DHT22;690;51.454;7.194;2023-09-18T09:10:25;21.20;1.00
1391;DHT22;690;51.454;7.194;2023-09-18T09:12:54;21.20;1.00
1391;DHT22;690;51.454;7.194;2023-09-18T09:15:23;21.20;1.00
1391;DHT22;690;51.454;7.194;2023-09-18T09:17:52;21.20;1.00
1391;DHT22;690;51.454;7.194;2023-09-18T09:20:19;21.20;1.00
1391;DHT22;690;51.454;7.194;2023-09-18T09:22:46;21.20;1.00
1391;DHT22;690;51.454;7.194;2023-09-18T09:25:24;21.20;1.00
1391;DHT22;690;51.454;7.194;2023-09-18T09:27:53;21.30;1.00
1391;DHT22;690;51.454;7.194;2023-09-18T09:30:21;21.40;1.00
1391;DHT22;690;51.454;7.194;2023-09-18T09:32:49;21.40;1.00
1391;DHT22;690;51.454;7.194;2023-09-18T09:35:24;21.40;1.00
1391;DHT22;690;51.454;7.194;2023-09-18T09:37:54;21.20;1.00
1391;DHT22;690;51.454;7.194;2023-09-18T09:40:24;21.20;1.00
1391;DHT22;690;51.454;7.194;2023-09-18T09:42:52;21.10;1.00
1391;DHT22;690;51.454;7.194;2023-09-18T09:45:26;21.10;1.00
1391;DHT22;690;51.454;7.194;2023-09-18T09:47:54;21.20;1.00
1391;DHT22;690;51.454;7.194;2023-09-18T09:50:21;21.30;1.00
1391;DHT22;690;51.454;7.194;2023-09-18T09:52:49;21.50;1.00
1391;DHT22;690;51.454;7.194;2023-09-18T09:55:20;21.50;1.00
1391;DHT22;690;51.454;7.194;2023-09-18T09:57:51;21.50;1.00
1391;DHT22;690;51.454;7.194;2023-09-18T10:00:19;21.50;1.00
1391;DHT22;690;51.454;7.194;2023-09-18T10:02:56;21.70;1.00
1391;DHT22;690;51.454;7.194;2023-09-18T10:05:26;21.80;1.00
1391;DHT22;690;51.454;7.194;2023-09-18T10:07:54;21.90;1.00
1391;DHT22;690;51.454;7.194;2023-09-18T10:10:25;22.00;1.00
1391;DHT22;690;51.454;7.194;2023-09-18T10:12:55;22.10;1.00
1391;DHT22;690;51.454;7.194;2023-09-18T10:15:27;22.20;1.00
1391;DHT22;690;51.454;7.194;2023-09-18T10:17:58;22.30;1.00
1391;DHT22;690;51.454;7.194;2023-09-18T10:20:26;22.50;99.90
1391;DHT22;690;51.454;7.194;2023-09-18T10:22:57;22.50;99.90
1391;DHT22;690;51.454;7.194;2023-09-18T10:25:28;22.50;99.90
1391;DHT22;690;51.454;7.194;2023-09-18T10:27:59;22.40;99.90
1391;DHT22;690;51.454;7.194;2023-09-18T10:30:29;22.50;99.90
1391;DHT22;690;51.454;7.194;2023-09-18T10:33:00;22.50;99.90
1391;DHT22;690;51.454;7.194;2023-09-18T10:35:27;22.60;99.90
1391;DHT22;690;51.454;7.194;2023-09-18T10:37:55;22.80;99.90
1391;DHT22;690;51.454;7.194;2023-09-18T10:40:23;23.00;99.90
1391;DHT22;690;51.454;7.194;2023-09-18T10:42:54;23.10;99.90
1391;DHT22;690;51.454;7.194;2023-09-18T10:45:25;23.20;99.90
1391;DHT22;690;51.454;7.194;2023-09-18T10:47:52;23.10;99.90
1391;DHT22;690;51.454;7.194;2023-09-18T10:50:23;23.00;99.90
1391;DHT22;690;51.454;7.194;2023-09-18T10:52:51;22.80;99.90
1391;DHT22;690;51.454;7.194;2023-09-18T10:55:18;22.70;99.90
1391;DHT22;690;51.454;7.194;2023-09-18T10:57:52;22.60;99.90
1391;DHT22;690;51.454;7.194;2023-09-18T11:00:20;22.60;99.90
1391;DHT22;690;51.454;7.194;2023-09-18T11:02:51;22.70;99.90
1391;DHT22;690;51.454;7.194;2023-09-18T11:05:32;22.80;99.90
1391;DHT22;690;51.454;7.194;2023-09-18T11:08:25;23.00;99.90
1391;DHT22;690;51.454;7.194;2023-09-18T11:10:58;23.10;99.90
1391;DHT22;690;51.454;7.194;2023-09-18T11:13:30;23.00;99.90
1391;DHT22;690;51.454;7.194;2023-09-18T11:16:01;23.00;99.90
1391;DHT22;690;51.454;7.194;2023-09-18T11:18:34;22.80;99.90
1391;DHT22;690;51.454;7.194;2023-09-18T11:21:08;22.60;99.90
1391;DHT22;690;51.454;7.194;2023-09-18T11:23:36;22.50;99.90
1391;DHT22;690;51.454;7.194;2023-09-18T11:26:04;22.50;99.90
1391;DHT22;690;51.454;7.194;2023-09-18T11:28:33;22.50;99.90
1391;DHT22;690;51.454;7.194;2023-09-18T11:31:00;22.60;99.90
1391;DHT22;690;51.454;7.194;2023-09-18T11:33:34;22.70;99.90
1391;DHT22;690;51.454;7.194;2023-09-18T11:36:04;22.80;99.90
1391;DHT22;690;51.454;7.194;2023-09-18T11:38:33;23.00;99.90
1391;DHT22;690;51.454;7.194;2023-09-18T11:41:19;23.10;99.90
1391;DHT22;690;51.454;7.194;2023-09-18T11:43:46;23.20;99.90
1391;DHT22;690;51.454;7.194;2023-09-18T11:46:18;23.40;99.90
1391;DHT22;690;51.454;7.194;2023-09-18T11:48:48;23.50;99.90
1391;DHT22;690;51.454;7.194;2023-09-18T11:51:23;23.40;99.90
1391;DHT22;690;51.454;7.194;2023-09-18T11:53:55;23.30;99.90
1391;DHT22;690;51.454;7.194;2023-09-18T11:56:23;23.30;99.90
1391;DHT22;690;51.454;7.194;2023-09-18T11:58:50;23.30;99.90
1391;DHT22;690;51.454;7.194;2023-09-18T12:01:20;23.40;99.90
1391;DHT22;690;51.454;7.194;2023-09-18T12:03:54;23.50;99.90
1391;DHT22;690;51.454;7.194;2023-09-18T12:06:21;23.60;99.90
1391;DHT22;690;51.454;7.194;2023-09-18T12:08:51;23.70;99.90
1391;DHT22;690;51.454;7.194;2023-09-18T12:11:18;23.70;99.90
1391;DHT22;690;51.454;7.194;2023-09-18T12:13:45;23.70;99.90
1391;DHT22;690;51.454;7.194;2023-09-18T12:16:12;23.80;99.90
1391;DHT22;690;51.454;7.194;2023-09-18T12:18:45;23.80;99.90
1391;DHT22;690;51.454;7.194;2023-09-18T12:21:15;23.70;99.90
1391;DHT22;690;51.454;7.194;2023-09-18T12:23:44;23.50;99.90
1391;DHT22;690;51.454;7.194;2023-09-18T12:26:13;23.40;99.90
1391;DHT22;690;51.454;7.194;2023-09-18T12:28:40;23.20;99.90
1391;DHT22;690;51.454;7.194;2023-09-18T12:31:10;23.00;99.90
1391;DHT22;690;51.454;7.194;2023-09-18T12:33:38;22.80;99.90
1391;DHT22;690;51.454;7.194;2023-09-18T12:36:07;22.70;99.90
1391;DHT22;690;51.454;7.194;2023-09-18T12:38:37;22.70;99.90
1391;DHT22;690;51.454;7.194;2023-09-18T12:41:05;22.80;99.90
1391;DHT22;690;51.454;7.194;2023-09-18T12:43:38;23.00;99.90
1391;DHT22;690;51.454;7.194;2023-09-18T12:46:06;23.10;99.90
1391;DHT22;690;51.454;7.194;2023-09-18T12:48:37;23.20;99.90
1391;DHT22;690;51.454;7.194;2023-09-18T12:51:05;23.20;99.90
1391;DHT22;690;51.454;7.194;2023-09-18T12:53:32;23.10;99.90
1391;DHT22;690;51.454;7.194;2023-09-18T12:56:08;23.20;99.90
1391;DHT22;690;51.454;7.194;2023-09-18T12:58:36;23.50;99.90
1391;DHT22;690;51.454;7.194;2023-09-18T13:01:07;23.70;99.90
1391;DHT22;690;51.454;7.194;2023-09-18T13:03:41;23.80;99.90
1391;DHT22;690;51.454;7.194;2023-09-18T13:06:09;23.70;99.90
1391;DHT22;690;51.454;7.194;2023-09-18T13:08:36;23.70;99.90
1391;DHT22;690;51.454;7.194;2023-09-18T13:11:03;23.50;99.90
1391;DHT22;690;51.454;7.194;2023-09-18T13:13:33;23.40;99.90
1391;DHT22;690;51.454;7.194;2023-09-18T13:16:03;23.30;99.90
1391;DHT22;690;51.454;7.194;2023-09-18T13:18:31;23.30;99.90
1391;DHT22;690;51.454;7.194;2023-09-18T13:20:58;23.20;99.90
1391;DHT22;690;51.454;7.194;2023-09-18T13:23:29;23.10;99.90
1391;DHT22;690;51.454;7.194;2023-09-18T13:26:00;23.10;99.90
1391;DHT22;690;51.454;7.194;2023-09-18T13:28:28;23.10;99.90
1391;DHT22;690;51.454;7.194;2023-09-18T13:30:57;23.10;99.90
1391;DHT22;690;51.454;7.194;2023-09-18T13:33:25;23.10;99.90
1391;DHT22;690;51.454;7.194;2023-09-18T13:35:53;23.10;99.90
1391;DHT22;690;51.454;7.194;2023-09-18T13:38:21;23.10;99.90
1391;DHT22;690;51.454;7.194;2023-09-18T13:40:48;23.20;99.90
1391;DHT22;690;51.454;7.194;2023-09-18T13:43:15;23.30;99.90
1391;DHT22;690;51.454;7.194;2023-09-18T13:45:44;23.50;99.90
1391;DHT22;690;51.454;7.194;2023-09-18T13:48:13;23.80;99.90
1391;DHT22;690;51.454;7.194;2023-09-18T13:50:41;24.10;99.90
1391;DHT22;690;51.454;7.194;2023-09-18T13:53:08;24.30;99.90
1391;DHT22;690;51.454;7.194;2023-09-18T13:55:35;24.30;99.90
1391;DHT22;690;51.454;7.194;2023-09-18T13:58:02;24.30;99.90
1391;DHT22;690;51.454;7.194;2023-09-18T14:00:30;24.20;99.90
1391;DHT22;690;51.454;7.194;2023-09-18T14:02:57;24.20;99.90
1391;DHT22;690;51.454;7.194;2023-09-18T14:05:25;24.10;99.90
1391;DHT22;690;51.454;7.194;2023-09-18T14:07:54;24.00;99.90
1391;DHT22;690;51.454;7.194;2023-09-18T14:10:25;24.00;99.90
1391;DHT22;690;51.454;7.194;2023-09-18T14:12:52;24.00;99.90
1391;DHT22;690;51.454;7.194;2023-09-18T14:15:19;24.10;99.90
1391;DHT22;690;51.454;7.194;2023-09-18T14:17:46;24.10;99.90
1391;DHT22;690;51.454;7.194;2023-09-18T14:20:14;24.00;99.90
1391;DHT22;690;51.454;7.194;2023-09-18T14:22:45;24.00;99.90
1391;DHT22;690;51.454;7.194;2023-09-18T14:25:15;24.00;99.90
1391;DHT22;690;51.454;7.194;2023-09-18T14:27:42;23.90;99.90
1391;DHT22;690;51.454;7.194;2023-09-18T14:30:10;23.90;99.90
1391;DHT22;690;51.454;7.194;2023-09-18T14:32:39;23.90;99.90
1391;DHT22;690;51.454;7.194;2023-09-18T14:35:06;23.80;99.90
1391;DHT22;690;51.454;7.194;2023-09-18T14:37:34;23.80;99.90
1391;DHT22;690;51.454;7.194;2023-09-18T14:40:03;23.80;99.90
1391;DHT22;690;51.454;7.194;2023-09-18T14:42:30;23.80;99.90
1391;DHT22;690;51.454;7.194;2023-09-18T14:44:58;23.90;99.90
1391;DHT22;690;51.454;7.194;2023-09-18T14:47:26;23.90;99.90
1391;DHT22;690;51.454;7.194;2023-09-18T14:49:53;23.80;99.90
1391;DHT22;690;51.454;7.194;2023-09-18T14:52:20;23.80;99.90
1391;DHT22;690;51.454;7.194;2023-09-18T14:54:50;23.80;99.90
1391;DHT22;690;51.454;7.194;2023-09-18T14:57:19;23.80;99.90
1391;DHT22;690;51.454;7.194;2023-09-18T14:59:46;23.70;99.90
1391;DHT22;690;51.454;7.194;2023-09-18T15:02:14;23.70;99.90
1391;DHT22;690;51.454;7.194;2023-09-18T15:04:41;23.60;99.90
1391;DHT22;690;51.454;7.194;2023-09-18T15:07:09;23.60;99.90
1391;DHT22;690;51.454;7.194;2023-09-18T15:09:36;23.50;99.90
1391;DHT22;690;51.454;7.194;2023-09-18T15:12:03;23.40;99.90
1391;DHT22;690;51.454;7.194;2023-09-18T15:14:34;23.40;99.90
1391;DHT22;690;51.454;7.194;2023-09-18T15:17:01;23.30;99.90
1391;DHT22;690;51.454;7.194;2023-09-18T15:19:28;23.30;99.90
1391;DHT22;690;51.454;7.194;2023-09-18T15:21:55;23.40;99.90
1391;DHT22;690;51.454;7.194;2023-09-18T15:24:23;23.40;99.90
1391;DHT22;690;51.454;7.194;2023-09-18T15:26:50;23.40;99.90
1391;DHT22;690;51.454;7.194;2023-09-18T15:29:17;23.40;99.90
1391;DHT22;690;51.454;7.194;2023-09-18T15:31:45;23.40;99.90
1391;DHT22;690;51.454;7.194;2023-09-18T15:34:13;23.40;99.90
1391;DHT22;690;51.454;7.194;2023-09-18T15:36:40;23.50;99.90
1391;DHT22;690;51.454;7.194;2023-09-18T15:39:07;23.50;99.90
1391;DHT22;690;51.454;7.194;2023-09-18T15:41:34;23.50;99.90
1391;DHT22;690;51.454;7.194;2023-09-18T15:44:03;23.60;99.90
1391;DHT22;690;51.454;7.194;2023-09-18T15:46:30;23.60;99.90
1391;DHT22;690;51.454;7.194;2023-09-18T15:48:58;23.70;99.90
1391;DHT22;690;51.454;7.194;2023-09-18T15:51:25;23.60;99.90
1391;DHT22;690;51.454;7.194;2023-09-18T15:53:53;23.70;99.90
1391;DHT22;690;51.454;7.194;2023-09-18T15:56:20;23.90;99.90
1391;DHT22;690;51.454;7.194;2023-09-18T15:58:47;24.20;99.90
1391;DHT22;690;51.454;7.194;2023-09-18T16:01:14;24.40;99.90
1391;DHT22;690;51.454;7.194;2023-09-18T16:03:41;24.60;99.90
1391;DHT22;690;51.454;7.194;2023-09-18T16:06:14;24.90;99.90
1391;DHT22;690;51.454;7.194;2023-09-18T16:08:42;25.10;99.90
1391;DHT22;690;51.454;7.194;2023-09-18T16:11:09;25.40;99.90
1391;DHT22;690;51.454;7.194;2023-09-18T16:13:37;25.50;99.90
1391;DHT22;690;51.454;7.194;2023-09-18T16:16:04;25.80;99.90
1391;DHT22;690;51.454;7.194;2023-09-18T16:18:31;26.10;99.90
1391;DHT22;690;51.454;7.194;2023-09-18T16:20:58;26.30;99.90
1391;DHT22;690;51.454;7.194;2023-09-18T16:23:26;26.40;99.90
1391;DHT22;690;51.454;7.194;2023-09-18T16:25:53;26.50;99.90
1391;DHT22;690;51.454;7.194;2023-09-18T16:28:22;26.50;99.90
1391;DHT22;690;51.454;7.194;2023-09-18T16:30:49;26.40;99.90